Time;durP1;ratioP1;P1;durP2;ratioP2;P2;SDS_P1;SDS_P2;PMS_P1;PMS_P2;Temp;Humidity;BMP_temperature;BMP_pressure;BME280_temperature;BME280_humidity;BME280_pressure;Samples;Min_cycle;Max_cycle;Signal;HPM_P1;HPM_P2
2022/04/19 00:02:10;;;;;;;3.92;3.53;;;9.00;90.10;;;;;;6000660;23;20198;-80
2022/04/19 00:04:37;;;;;;;3.58;3.28;;;9.00;90.40;;;;;;6001624;23;20203;-80
2022/04/19 00:07:06;;;;;;;3.90;3.42;;;8.90;90.70;;;;;;6003125;23;20268;-79
2022/04/19 00:09:32;;;;;;;4.00;3.55;;;8.90;91.10;;;;;;6003596;23;20675;-81
2022/04/19 00:11:59;;;;;;;4.93;3.60;;;8.80;91.40;;;;;;6002450;23;20199;-80
2022/04/19 00:14:26;;;;;;;5.00;3.65;;;8.70;91.80;;;;;;6002841;23;20201;-80
2022/04/19 00:16:55;;;;;;;4.68;3.42;;;8.70;92.30;;;;;;5999570;23;20291;-79
2022/04/19 00:19:22;;;;;;;4.85;3.90;;;8.50;92.60;;;;;;6002453;23;20731;-79
2022/04/19 00:21:49;;;;;;;3.50;3.20;;;8.50;93.00;;;;;;6000196;23;20278;-79
2022/04/19 00:24:16;;;;;;;4.10;3.20;;;8.40;93.40;;;;;;6001852;23;20190;-79
2022/04/19 00:26:43;;;;;;;3.10;2.80;;;8.30;93.80;;;;;;6003103;23;20301;-79
2022/04/19 00:29:10;;;;;;;3.40;3.10;;;8.20;94.30;;;;;;6002710;23;20552;-79
2022/04/19 00:31:37;;;;;;;3.85;3.30;;;8.10;94.70;;;;;;6002262;23;20599;-79
2022/04/19 00:34:05;;;;;;;4.30;3.10;;;8.10;95.30;;;;;;6001283;23;20273;-80
2022/04/19 00:36:32;;;;;;;3.67;3.38;;;8.00;95.80;;;;;;5997337;23;20237;-79
2022/04/19 00:39:00;;;;;;;3.50;3.20;;;7.90;96.30;;;;;;6001171;23;20638;-79
2022/04/19 00:41:26;;;;;;;3.50;3.20;;;7.90;96.90;;;;;;6004049;23;20200;-79
2022/04/19 00:43:54;;;;;;;3.45;3.15;;;7.90;97.20;;;;;;6000062;23;20213;-79
2022/04/19 00:46:21;;;;;;;2.88;2.67;;;7.80;97.60;;;;;;5997384;23;20255;-80
2022/04/19 00:48:48;;;;;;;3.60;3.30;;;7.80;98.00;;;;;;6000979;23;20198;-79
2022/04/19 00:51:18;;;;;;;3.35;3.05;;;7.70;98.30;;;;;;6001500;23;20221;-79
2022/04/19 00:53:47;;;;;;;4.10;3.20;;;7.70;98.80;;;;;;6002667;23;20240;-79
2022/04/19 00:56:14;;;;;;;3.20;2.78;;;7.60;99.00;;;;;;6001954;23;20735;-79
2022/04/19 00:58:41;;;;;;;3.35;3.10;;;7.60;99.40;;;;;;6002599;23;20201;-80
2022/04/19 01:01:08;;;;;;;3.10;2.80;;;7.60;99.70;;;;;;6001675;23;20211;-79
2022/04/19 01:03:37;;;;;;;4.10;3.05;;;7.50;99.90;;;;;;6001131;23;20286;-79
2022/04/19 01:06:05;;;;;;;3.58;2.80;;;7.60;99.90;;;;;;6001685;23;20830;-79
2022/04/19 01:08:34;;;;;;;3.08;2.63;;;7.50;99.90;;;;;;6003816;23;20229;-79
2022/04/19 01:13:48;;;;;;;3.20;3.00;;;7.50;99.90;;;;;;5975692;23;20680;-79
2022/04/19 01:16:16;;;;;;;4.18;3.78;;;7.50;99.90;;;;;;6000586;23;20229;-79
2022/04/19 01:18:43;;;;;;;3.15;2.95;;;7.50;99.90;;;;;;6003898;23;20198;-79
2022/04/19 01:21:10;;;;;;;4.00;3.10;;;7.50;99.90;;;;;;6002433;23;20202;-79
2022/04/19 01:23:41;;;;;;;3.45;3.15;;;7.50;99.90;;;;;;5998279;23;20191;-79
2022/04/19 01:26:08;;;;;;;3.40;3.10;;;7.60;99.90;;;;;;6001847;23;20214;-79
2022/04/19 01:28:35;;;;;;;3.00;2.70;;;7.50;99.90;;;;;;6003961;23;20673;-79
2022/04/19 01:31:03;;;;;;;3.55;3.25;;;7.50;99.90;;;;;;6002677;23;20257;-79
2022/04/19 01:33:29;;;;;;;3.78;3.47;;;7.50;99.90;;;;;;6000047;23;20665;-79
2022/04/19 01:35:56;;;;;;;3.90;3.10;;;7.50;99.90;;;;;;6000726;23;20209;-79
2022/04/19 01:38:23;;;;;;;4.57;3.38;;;7.50;99.90;;;;;;5998747;23;20197;-79
2022/04/19 01:40:53;;;;;;;3.80;3.38;;;7.40;99.90;;;;;;5998743;23;20355;-79
2022/04/19 01:43:20;;;;;;;3.50;3.20;;;7.40;99.90;;;;;;5998684;23;20224;-79
2022/04/19 01:45:46;;;;;;;3.55;3.25;;;7.40;99.90;;;;;;5999716;23;20223;-79
2022/04/19 01:48:13;;;;;;;4.07;3.70;;;7.40;99.90;;;;;;6000564;23;20649;-79
2022/04/19 01:50:40;;;;;;;4.05;3.65;;;7.40;99.90;;;;;;5999377;23;20300;-79
2022/04/19 01:53:07;;;;;;;4.25;3.60;;;7.40;99.90;;;;;;6001606;23;20609;-79
2022/04/19 01:55:34;;;;;;;6.38;3.65;;;7.40;99.90;;;;;;6000267;23;20218;-79
2022/04/19 01:58:03;;;;;;;5.72;4.50;;;7.40;99.90;;;;;;6002832;23;20282;-79
2022/04/19 02:00:30;;;;;;;4.70;4.20;;;7.40;99.90;;;;;;6000328;23;20201;-79
2022/04/19 02:02:57;;;;;;;5.68;4.55;;;7.50;99.90;;;;;;6000582;23;20191;-79
2022/04/19 02:05:25;;;;;;;4.40;4.00;;;7.60;99.90;;;;;;6001917;23;20248;-79
2022/04/19 02:07:52;;;;;;;5.50;4.05;;;7.60;99.90;;;;;;6002808;23;20201;-79
2022/04/19 02:10:21;;;;;;;4.97;4.07;;;7.60;99.90;;;;;;5990440;23;20696;-79
2022/04/19 02:12:49;;;;;;;4.25;3.85;;;7.60;99.90;;;;;;6001954;23;20209;-78
2022/04/19 02:15:18;;;;;;;4.50;4.10;;;7.60;99.90;;;;;;6004167;23;20296;-78
2022/04/19 02:17:45;;;;;;;4.75;4.35;;;7.60;99.90;;;;;;6002672;23;20221;-78
2022/04/19 02:20:14;;;;;;;5.43;4.20;;;7.60;99.90;;;;;;6001741;23;20235;-78
2022/04/19 02:22:42;;;;;;;4.97;4.07;;;7.60;99.90;;;;;;6003378;23;20225;-78
2022/04/19 02:25:11;;;;;;;5.28;4.78;;;7.60;99.90;;;;;;6001980;23;20301;-78
2022/04/19 02:27:40;;;;;;;4.55;4.13;;;7.60;99.90;;;;;;6001931;23;20206;-78
2022/04/19 02:30:13;;;;;;;4.57;4.18;;;7.60;99.90;;;;;;6002800;23;20268;-78
2022/04/19 02:32:43;;;;;;;7.53;4.10;;;7.60;99.90;;;;;;6000695;23;20496;-78
2022/04/19 02:35:10;;;;;;;5.20;4.45;;;7.60;99.90;;;;;;6002490;23;20664;-78
2022/04/19 02:37:38;;;;;;;5.03;4.60;;;7.60;99.90;;;;;;6001249;23;20701;-77
2022/04/19 02:40:07;;;;;;;4.85;4.35;;;7.60;99.90;;;;;;5996727;23;20206;-79
2022/04/19 02:42:34;;;;;;;5.28;4.20;;;7.60;99.90;;;;;;6000160;23;20190;-79
2022/04/19 02:45:03;;;;;;;6.18;5.00;;;7.60;99.90;;;;;;6000001;23;20203;-78
2022/04/19 02:47:31;;;;;;;4.65;4.00;;;7.60;99.90;;;;;;6001533;23;20209;-79
2022/04/19 02:49:59;;;;;;;4.80;4.30;;;7.60;99.90;;;;;;6002460;23;20198;-78
2022/04/19 02:52:26;;;;;;;5.70;5.20;;;7.60;99.90;;;;;;6001456;23;20657;-79
2022/04/19 02:54:54;;;;;;;5.10;4.60;;;7.50;99.90;;;;;;6001881;23;20197;-79
2022/04/19 02:57:21;;;;;;;5.80;4.10;;;7.40;99.90;;;;;;6001243;23;20194;-79
2022/04/19 02:59:48;;;;;;;5.10;4.60;;;7.30;99.90;;;;;;6003025;23;20201;-79
2022/04/19 03:02:17;;;;;;;4.40;4.00;;;7.10;99.90;;;;;;6001703;23;20201;-79
2022/04/19 03:04:44;;;;;;;4.32;4.03;;;6.90;99.90;;;;;;5999389;23;20656;-79
2022/04/19 03:07:14;;;;;;;5.43;4.53;;;6.70;99.90;;;;;;5999486;23;20731;-78
2022/04/19 03:09:41;;;;;;;5.28;4.50;;;6.50;99.90;;;;;;6002327;23;20194;-78
2022/04/19 03:12:10;;;;;;;4.43;4.03;;;6.40;99.90;;;;;;5998986;23;20226;-79
2022/04/19 03:14:37;;;;;;;4.70;4.30;;;6.30;99.90;;;;;;6002777;23;20198;-79
2022/04/19 03:17:05;;;;;;;3.90;3.55;;;6.20;99.90;;;;;;6000059;23;20289;-78
2022/04/19 03:19:32;;;;;;;4.68;4.28;;;6.10;99.90;;;;;;6000133;23;20649;-78
2022/04/19 03:21:59;;;;;;;4.38;3.97;;;6.00;99.90;;;;;;5999364;23;20222;-78
2022/04/19 03:27:42;;;;;;;4.20;3.90;;;5.80;99.90;;;;;;6002513;23;20218;-78
2022/04/19 03:30:12;;;;;;;4.78;4.20;;;5.70;99.90;;;;;;5994181;23;20406;-78
2022/04/19 03:32:38;;;;;;;4.28;3.88;;;5.60;99.90;;;;;;5999166;23;20249;-78
2022/04/19 03:35:06;;;;;;;4.40;4.00;;;5.60;99.90;;;;;;6001905;23;20213;-78
2022/04/19 03:37:33;;;;;;;4.70;4.30;;;5.60;99.90;;;;;;6002713;23;20194;-78
2022/04/19 03:40:01;;;;;;;4.72;4.03;;;5.50;99.90;;;;;;6001121;23;20199;-78
2022/04/19 03:42:28;;;;;;;5.10;4.20;;;5.50;99.90;;;;;;6001578;23;20209;-78
2022/04/19 03:44:55;;;;;;;6.03;4.60;;;5.50;99.90;;;;;;5998903;23;20328;-78
2022/04/19 03:47:22;;;;;;;4.50;4.10;;;5.50;99.90;;;;;;6003022;23;20273;-77
2022/04/19 03:49:49;;;;;;;5.15;4.65;;;5.50;99.90;;;;;;6004588;23;20328;-76
2022/04/19 03:52:16;;;;;;;5.13;4.68;;;5.40;99.90;;;;;;6001229;23;20225;-76
2022/04/19 03:54:43;;;;;;;4.57;4.18;;;5.40;99.90;;;;;;6002683;23;21276;-76
2022/04/19 03:57:11;;;;;;;4.53;4.13;;;5.40;99.90;;;;;;6003866;23;20276;-76
2022/04/19 03:59:39;;;;;;;4.78;3.97;;;5.30;99.90;;;;;;6001537;23;20197;-76
2022/04/19 04:02:06;;;;;;;4.00;3.60;;;5.30;99.90;;;;;;5999707;23;20253;-76
2022/04/19 04:04:35;;;;;;;4.93;4.18;;;5.20;99.90;;;;;;5998854;23;20201;-76
2022/04/19 04:07:02;;;;;;;4.57;4.10;;;5.20;99.90;;;;;;6000535;23;20221;-75
2022/04/19 04:09:32;;;;;;;4.20;3.55;;;5.10;99.90;;;;;;6004098;23;20247;-76
2022/04/19 04:12:00;;;;;;;5.35;4.25;;;4.90;99.90;;;;;;5995131;23;20245;-77
2022/04/19 04:14:29;;;;;;;5.68;4.10;;;5.10;99.90;;;;;;6000178;23;20202;-76
2022/04/19 04:16:56;;;;;;;4.20;3.80;;;5.00;99.90;;;;;;5995000;23;20561;-76
2022/04/19 04:19:23;;;;;;;5.25;4.63;;;5.00;99.90;;;;;;6001260;23;20264;-76
2022/04/19 04:21:50;;;;;;;5.20;4.70;;;4.90;99.90;;;;;;6003814;23;20637;-75
2022/04/19 04:24:17;;;;;;;5.50;4.75;;;4.90;99.90;;;;;;6005333;23;20182;-78
2022/04/19 04:26:44;;;;;;;5.60;5.03;;;4.90;99.90;;;;;;5998564;23;20732;-79
2022/04/19 04:29:11;;;;;;;6.10;5.50;;;5.00;99.90;;;;;;6002681;23;20202;-78
2022/04/19 04:31:39;;;;;;;7.07;5.60;;;4.90;99.90;;;;;;6004154;23;20619;-78
2022/04/19 04:34:06;;;;;;;6.00;5.40;;;5.00;99.90;;;;;;6004251;23;20225;-78
2022/04/19 04:36:33;;;;;;;6.25;5.65;;;5.10;99.90;;;;;;6003940;23;20210;-79
2022/04/19 04:39:00;;;;;;;6.63;6.03;;;5.10;99.90;;;;;;6003767;23;20252;-79
2022/04/19 04:41:27;;;;;;;6.22;5.63;;;5.10;99.90;;;;;;5995563;23;20269;-79
2022/04/19 04:43:54;;;;;;;5.47;4.97;;;5.10;99.90;;;;;;6004436;23;20562;-79
2022/04/19 04:51:53;;;;;;;4.97;4.57;;;5.30;99.90;;;;;;5999843;23;20547;-77
2022/04/19 04:54:20;;;;;;;6.40;5.45;;;5.30;99.90;;;;;;6001481;23;20190;-77
2022/04/19 04:56:47;;;;;;;6.60;5.32;;;5.30;99.90;;;;;;5996262;23;20229;-77
2022/04/19 04:59:14;;;;;;;6.53;5.50;;;5.30;99.90;;;;;;5996082;23;20633;-78
2022/04/19 05:01:41;;;;;;;6.03;5.43;;;5.20;99.90;;;;;;5985843;23;20193;-78
2022/04/19 05:04:09;;;;;;;6.40;5.35;;;5.20;99.90;;;;;;5994516;23;20196;-78
2022/04/19 05:06:36;;;;;;;6.53;5.47;;;5.30;99.90;;;;;;5994396;23;20213;-78
2022/04/19 05:09:03;;;;;;;5.55;5.05;;;5.30;99.90;;;;;;5994371;23;20189;-79
2022/04/19 05:11:30;;;;;;;5.40;4.90;;;5.30;99.90;;;;;;5998621;23;20206;-78
2022/04/19 05:13:57;;;;;;;6.13;5.53;;;5.30;99.90;;;;;;5997184;23;20625;-78
2022/04/19 05:16:24;;;;;;;5.60;5.10;;;5.30;99.90;;;;;;5986236;23;20225;-78
2022/04/19 05:18:51;;;;;;;7.75;5.13;;;5.40;99.90;;;;;;5994695;23;20187;-77
2022/04/19 05:21:20;;;;;;;5.18;4.68;;;5.40;99.90;;;;;;5996626;23;20194;-78
2022/04/19 05:23:47;;;;;;;5.20;4.70;;;5.40;99.90;;;;;;5994887;23;20186;-78
2022/04/19 05:26:14;;;;;;;5.20;4.70;;;5.50;99.90;;;;;;5999929;23;21114;-77
2022/04/19 05:28:40;;;;;;;6.45;4.47;;;5.50;99.90;;;;;;5997855;23;20190;-77
2022/04/19 05:31:08;;;;;;;5.75;5.00;;;5.60;99.90;;;;;;5997430;23;20214;-77
2022/04/19 05:33:35;;;;;;;8.45;5.20;;;5.60;99.90;;;;;;5989526;23;20269;-78
2022/04/19 05:36:01;;;;;;;7.45;6.00;;;5.60;99.90;;;;;;5992980;23;20206;-76
2022/04/19 05:38:30;;;;;;;5.25;4.75;;;5.60;99.90;;;;;;5999709;23;20182;-75
2022/04/19 05:40:58;;;;;;;5.97;5.43;;;5.70;99.90;;;;;;6000723;23;20183;-76
2022/04/19 05:43:25;;;;;;;6.90;5.38;;;5.70;99.90;;;;;;6000398;23;20178;-75
2022/04/19 05:45:53;;;;;;;6.20;5.20;;;5.80;99.90;;;;;;5993889;23;20685;-75
2022/04/19 05:48:20;;;;;;;5.00;4.50;;;5.80;99.90;;;;;;5981312;23;20196;-76
2022/04/19 05:50:47;;;;;;;7.80;5.40;;;5.90;99.90;;;;;;5979544;23;20193;-78
2022/04/19 05:53:14;;;;;;;7.47;4.97;;;6.00;99.90;;;;;;5994420;23;20208;-77
2022/04/19 05:55:43;;;;;;;5.22;4.72;;;6.00;99.90;;;;;;5994109;23;20229;-78
2022/04/19 05:58:10;;;;;;;5.53;4.93;;;6.10;99.90;;;;;;5995976;23;20182;-77
2022/04/19 06:00:37;;;;;;;5.18;4.68;;;6.10;99.90;;;;;;5994247;23;20205;-78
2022/04/19 06:05:49;;;;;;;5.38;4.88;;;6.30;99.90;;;;;;5990819;23;20206;-79
2022/04/19 06:08:16;;;;;;;6.20;5.03;;;6.50;99.90;;;;;;5998440;23;20269;-78
2022/04/19 06:10:45;;;;;;;5.53;5.00;;;6.60;99.90;;;;;;5989572;23;20187;-78
2022/04/19 06:13:12;;;;;;;5.47;4.97;;;6.80;99.90;;;;;;6000701;23;20210;-78
2022/04/19 06:15:39;;;;;;;4.90;4.40;;;6.90;99.90;;;;;;5986478;23;20214;-79
2022/04/19 06:18:06;;;;;;;5.20;4.70;;;7.00;99.90;;;;;;5989766;23;20190;-78
2022/04/19 06:20:34;;;;;;;6.07;5.45;;;7.20;99.90;;;;;;5993583;23;20191;-78
2022/04/19 06:23:01;;;;;;;6.10;5.20;;;7.30;99.90;;;;;;6000464;23;20178;-79
2022/04/19 06:25:28;;;;;;;4.88;4.40;;;7.40;99.90;;;;;;5989945;23;20277;-79
2022/04/19 06:27:58;;;;;;;5.88;4.93;;;7.50;99.90;;;;;;5984983;23;20668;-78
2022/04/19 06:30:25;;;;;;;5.60;5.10;;;7.60;99.90;;;;;;5993733;23;20182;-79
2022/04/19 06:32:53;;;;;;;5.43;4.93;;;7.60;99.90;;;;;;5990052;23;20212;-80
2022/04/19 06:35:21;;;;;;;6.13;4.93;;;7.70;99.90;;;;;;5987179;23;20213;-80
2022/04/19 06:37:48;;;;;;;6.47;5.28;;;7.90;99.90;;;;;;5995407;23;20253;-79
2022/04/19 06:40:15;;;;;;;4.35;4.00;;;8.20;99.90;;;;;;5996651;23;20222;-79
2022/04/19 06:42:44;;;;;;;4.95;4.28;;;8.60;99.90;;;;;;5995353;23;20206;-79
2022/04/19 06:45:13;;;;;;;5.18;4.55;;;8.90;99.90;;;;;;5993181;23;20246;-79
2022/04/19 06:47:40;;;;;;;6.07;5.05;;;9.20;99.90;;;;;;6000814;23;20838;-79
2022/04/19 06:50:09;;;;;;;6.05;4.60;;;9.60;99.90;;;;;;5990447;23;20189;-79
2022/04/19 06:52:36;;;;;;;5.55;4.60;;;9.90;99.90;;;;;;5989441;23;20205;-78
2022/04/19 06:55:04;;;;;;;5.97;5.13;;;10.30;99.90;;;;;;5985442;23;20210;-78
2022/04/19 06:57:37;;;;;;;5.45;4.75;;;10.90;99.90;;;;;;5988543;23;20249;-78
2022/04/19 07:00:05;;;;;;;8.70;5.22;;;11.80;99.90;;;;;;5994199;23;22058;-78
2022/04/19 07:02:34;;;;;;;6.00;5.18;;;12.60;99.90;;;;;;5995439;23;20186;-78
2022/04/19 07:05:01;;;;;;;5.30;4.80;;;13.40;99.10;;;;;;5993207;23;20220;-78
2022/04/19 07:07:28;;;;;;;6.57;5.33;;;14.20;96.70;;;;;;5999337;23;20219;-79
2022/04/19 07:09:55;;;;;;;11.60;5.00;;;14.80;94.70;;;;;;5999048;23;20498;-79
2022/04/19 07:12:22;;;;;;;5.60;4.73;;;15.40;93.10;;;;;;5999443;23;20508;-79
2022/04/19 07:14:49;;;;;;;6.93;4.63;;;16.00;91.60;;;;;;5998920;23;20468;-79
2022/04/19 07:17:16;;;;;;;8.80;4.90;;;16.60;90.00;;;;;;5994864;23;21279;-79
2022/04/19 07:28:05;;;;;;;5.37;4.50;;;18.80;79.30;;;;;;5910924;23;20445;-79
2022/04/19 07:30:32;;;;;;;6.20;4.87;;;19.00;76.10;;;;;;5992825;23;21000;-79
2022/04/19 07:33:00;;;;;;;5.70;5.20;;;19.10;74.90;;;;;;5986998;23;20466;-79
2022/04/19 07:35:28;;;;;;;4.90;4.43;;;18.90;74.60;;;;;;5997216;23;20461;-79
2022/04/19 07:37:55;;;;;;;5.80;5.30;;;19.30;74.20;;;;;;5999120;23;20459;-80
2022/04/19 07:40:22;;;;;;;8.07;5.10;;;19.60;72.90;;;;;;6000283;23;20516;-79
2022/04/19 07:42:49;;;;;;;7.63;4.90;;;20.00;71.40;;;;;;5999840;23;20458;-79
2022/04/19 07:45:16;;;;;;;8.33;5.47;;;20.20;70.10;;;;;;6001062;23;20480;-79
2022/04/19 07:47:43;;;;;;;5.43;4.87;;;20.60;68.80;;;;;;6002073;23;20453;-79
2022/04/19 07:50:11;;;;;;;4.80;4.40;;;21.00;66.70;;;;;;6000313;23;20441;-79
2022/04/19 07:52:39;;;;;;;5.70;5.10;;;21.30;66.10;;;;;;5999121;23;20469;-79
2022/04/19 07:55:07;;;;;;;6.80;5.57;;;21.50;64.60;;;;;;5991778;23;20457;-79
2022/04/19 07:57:34;;;;;;;6.13;5.53;;;21.90;62.50;;;;;;5999139;23;20470;-79
2022/04/19 08:00:01;;;;;;;9.37;5.27;;;22.10;58.60;;;;;;5996457;23;20439;-79
2022/04/19 08:02:30;;;;;;;5.47;4.50;;;21.80;58.20;;;;;;5997523;23;20449;-78
2022/04/19 08:04:58;;;;;;;6.50;5.37;;;21.70;58.10;;;;;;5997338;23;20489;-79
2022/04/19 08:07:24;;;;;;;6.33;5.60;;;21.30;59.10;;;;;;5987716;23;20536;-79
2022/04/19 08:09:53;;;;;;;5.70;5.20;;;21.20;59.30;;;;;;5994650;23;20447;-79
2022/04/19 08:12:20;;;;;;;4.70;4.30;;;21.40;58.70;;;;;;5993536;23;20968;-79
2022/04/19 08:14:46;;;;;;;5.63;4.53;;;22.00;58.00;;;;;;5992420;23;20456;-79
2022/04/19 08:17:15;;;;;;;5.10;4.60;;;22.60;56.40;;;;;;5999918;23;20957;-79
2022/04/19 08:19:42;;;;;;;5.20;4.70;;;23.20;55.40;;;;;;5998377;23;20457;-79
2022/04/19 08:22:09;;;;;;;5.07;4.57;;;23.80;54.20;;;;;;6001704;23;20864;-80
2022/04/19 08:24:36;;;;;;;5.13;4.43;;;24.30;53.10;;;;;;5996871;23;20995;-79
2022/04/19 08:27:05;;;;;;;4.90;4.20;;;24.60;52.80;;;;;;5997853;23;20464;-80
2022/04/19 08:29:32;;;;;;;4.60;4.20;;;25.10;52.10;;;;;;5993697;23;20450;-80
2022/04/19 08:31:59;;;;;;;5.03;4.53;;;25.20;51.80;;;;;;5992745;23;20471;-80
2022/04/19 08:34:26;;;;;;;4.17;3.77;;;25.40;51.80;;;;;;5999480;23;20465;-80
2022/04/19 08:36:53;;;;;;;5.30;4.40;;;25.70;50.90;;;;;;5997227;23;20473;-80
2022/04/19 08:39:20;;;;;;;5.13;4.57;;;25.90;49.80;;;;;;5993015;23;20868;-80
2022/04/19 08:41:48;;;;;;;3.87;3.57;;;25.90;49.00;;;;;;5994118;23;20449;-80
2022/04/19 08:44:18;;;;;;;4.40;4.10;;;26.00;48.80;;;;;;6000953;23;20477;-80
2022/04/19 08:46:46;;;;;;;4.20;3.83;;;26.20;47.50;;;;;;5997540;23;21019;-80
2022/04/19 08:49:16;;;;;;;4.93;3.70;;;26.40;47.10;;;;;;5991103;23;20449;-80
2022/04/19 08:51:45;;;;;;;5.73;3.90;;;26.30;45.50;;;;;;5994611;23;20797;-80
2022/04/19 08:59:44;;;;;;;4.63;4.23;;;26.60;46.00;;;;;;5992859;23;20955;-80
2022/04/19 09:02:22;;;;;;;4.63;4.20;;;26.50;45.40;;;;;;5998169;23;20524;-80
2022/04/19 09:04:49;;;;;;;5.83;4.37;;;26.50;45.70;;;;;;5988879;23;20984;-79
2022/04/19 09:07:17;;;;;;;4.77;3.80;;;26.80;45.90;;;;;;5996837;23;20508;-79
2022/04/19 09:09:57;;;;;;;4.83;4.10;;;27.00;44.50;;;;;;5996226;23;20867;-80
2022/04/19 09:12:24;;;;;;;4.40;3.60;;;27.10;44.80;;;;;;5991395;23;20456;-80
2022/04/19 09:14:57;;;;;;;4.50;3.43;;;27.40;43.60;;;;;;5995635;23;20488;-80
2022/04/19 09:17:32;;;;;;;4.70;4.20;;;28.00;42.10;;;;;;5985483;23;20442;-80
2022/04/19 09:20:15;;;;;;;3.77;3.47;;;28.60;40.90;;;;;;6001556;23;20472;-80
2022/04/19 09:22:43;;;;;;;4.23;3.80;;;29.10;40.60;;;;;;5991885;23;20437;-80
2022/04/19 09:25:18;;;;;;;3.63;3.33;;;29.40;39.70;;;;;;5994444;23;20476;-79
2022/04/19 09:27:45;;;;;;;4.20;3.67;;;29.50;38.70;;;;;;5987414;23;20547;-80
2022/04/19 09:30:23;;;;;;;3.93;3.63;;;29.20;38.30;;;;;;6000354;23;20803;-79
2022/04/19 09:33:08;;;;;;;3.93;3.43;;;28.80;38.30;;;;;;5999593;23;20472;-80
2022/04/19 09:35:37;;;;;;;4.10;3.70;;;28.70;38.50;;;;;;6000486;23;20824;-80
2022/04/19 09:38:04;;;;;;;3.90;3.47;;;28.60;38.20;;;;;;5984831;23;20449;-80
2022/04/19 09:40:33;;;;;;;3.80;3.40;;;28.80;38.20;;;;;;5991388;23;20454;-80
2022/04/19 09:43:10;;;;;;;4.10;3.80;;;29.10;38.70;;;;;;5995350;23;20476;-81
2022/04/19 09:45:54;;;;;;;4.23;3.43;;;29.30;36.80;;;;;;5998606;23;20471;-80
2022/04/19 09:48:23;;;;;;;4.03;3.20;;;28.70;37.70;;;;;;5984892;23;20475;-79
2022/04/19 09:50:52;;;;;;;3.57;3.23;;;28.90;37.60;;;;;;6001535;23;20459;-79
2022/04/19 09:53:21;;;;;;;4.03;3.63;;;28.50;36.10;;;;;;5997895;23;20559;-79
2022/04/19 09:55:49;;;;;;;3.80;3.40;;;28.10;36.40;;;;;;5998894;23;20453;-79
2022/04/19 09:58:17;;;;;;;3.10;2.90;;;27.90;36.60;;;;;;5998915;23;21003;-79
2022/04/19 10:00:45;;;;;;;3.57;3.27;;;27.80;37.10;;;;;;6000557;23;20448;-80
2022/04/19 10:08:47;;;;;;;3.70;3.10;;;28.90;36.90;;;;;;5997096;23;20519;-81
2022/04/19 10:11:16;;;;;;;3.00;2.73;;;28.50;36.20;;;;;;5985985;23;20519;-80
2022/04/19 10:13:43;;;;;;;3.30;3.10;;;28.50;37.00;;;;;;5988462;23;20552;-80
2022/04/19 10:16:12;;;;;;;3.93;3.63;;;28.60;35.70;;;;;;5994071;23;20434;-79
2022/04/19 10:18:41;;;;;;;3.47;3.17;;;29.00;35.90;;;;;;5988603;23;20945;-78
2022/04/19 10:21:10;;;;;;;3.63;3.37;;;28.50;36.90;;;;;;5994329;23;20441;-79
2022/04/19 10:23:39;;;;;;;3.83;3.00;;;28.50;37.00;;;;;;5991542;23;20461;-78
2022/04/19 10:26:15;;;;;;;3.57;3.27;;;28.50;37.20;;;;;;5994575;23;20540;-78
2022/04/19 10:28:42;;;;;;;4.17;3.10;;;29.20;37.40;;;;;;5995413;23;20437;-79
2022/04/19 10:31:10;;;;;;;4.27;3.97;;;29.80;34.50;;;;;;5999740;23;20532;-81
2022/04/19 10:33:52;;;;;;;5.57;5.07;;;30.20;34.70;;;;;;6002523;23;20473;-81
2022/04/19 10:36:22;;;;;;;4.33;4.03;;;30.10;33.20;;;;;;5998456;23;20467;-81
2022/04/19 10:39:23;;;;;;;4.40;4.00;;;30.00;34.20;;;;;;5998448;23;20465;-84
2022/04/19 10:41:53;;;;;;;4.13;3.80;;;30.10;34.10;;;;;;5990669;23;20449;-83
2022/04/19 10:44:25;;;;;;;4.53;4.13;;;30.20;33.70;;;;;;5995873;23;20898;-80
2022/04/19 10:47:12;;;;;;;4.40;4.10;;;30.30;33.90;;;;;;5996058;23;20433;-80
2022/04/19 10:50:03;;;;;;;5.20;4.80;;;30.20;33.60;;;;;;6003865;23;20986;-81
2022/04/19 10:52:49;;;;;;;4.47;4.17;;;30.50;33.70;;;;;;6000025;23;20433;-81
2022/04/19 10:55:27;;;;;;;5.00;4.60;;;30.60;33.10;;;;;;6002785;23;20452;-81
2022/04/19 10:58:08;;;;;;;4.80;4.40;;;30.60;33.80;;;;;;6002385;23;20735;-81
2022/04/19 11:00:38;;;;;;;5.13;4.50;;;30.40;33.40;;;;;;6001729;23;20532;-81
2022/04/19 11:03:06;;;;;;;5.50;5.10;;;29.60;33.30;;;;;;5998350;23;20477;-79
2022/04/19 11:05:43;;;;;;;5.20;4.70;;;28.80;34.20;;;;;;5997004;23;20549;-79
2022/04/19 11:08:35;;;;;;;4.30;3.90;;;28.40;35.00;;;;;;5998770;23;20460;-79
2022/04/19 11:11:21;;;;;;;4.70;4.30;;;28.80;34.20;;;;;;5995419;23;20476;-79
2022/04/19 11:14:17;;;;;;;4.93;4.53;;;29.40;34.10;;;;;;5993945;23;20473;-80
2022/04/19 11:16:44;;;;;;;5.37;4.80;;;29.30;33.90;;;;;;5995130;23;20484;-80
2022/04/19 11:19:16;;;;;;;4.80;4.40;;;28.70;34.20;;;;;;6001761;23;20448;-80
2022/04/19 11:21:59;;;;;;;6.20;5.60;;;28.30;34.40;;;;;;5997333;23;20488;-81
2022/04/19 11:25:01;;;;;;;5.33;4.83;;;27.70;35.20;;;;;;5989725;23;20579;-80
2022/04/19 11:28:09;;;;;;;5.57;5.17;;;27.40;35.70;;;;;;5999191;23;20515;-80
2022/04/19 11:30:37;;;;;;;17.13;15.63;;;27.70;35.70;;;;;;5991344;23;20446;-80
2022/04/19 11:33:06;;;;;;;7.43;6.83;;;28.10;35.30;;;;;;5994696;23;20472;-81
2022/04/19 11:35:33;;;;;;;6.47;5.07;;;28.30;35.90;;;;;;5996068;23;20794;-80
2022/04/19 11:38:05;;;;;;;5.30;4.80;;;28.70;35.00;;;;;;5995039;23;20440;-79
2022/04/19 11:48:50;;;;;;;5.23;4.83;;;27.90;35.00;;;;;;5989611;23;20568;-84
2022/04/19 11:51:19;;;;;;;5.20;4.80;;;27.40;34.50;;;;;;5999853;23;20449;-81
2022/04/19 11:53:49;;;;;;;4.60;4.20;;;26.60;35.30;;;;;;5988264;23;20491;-80
2022/04/19 11:56:16;;;;;;;5.30;4.43;;;26.20;35.90;;;;;;5996412;23;20437;-82
2022/04/19 11:58:50;;;;;;;6.17;3.73;;;25.80;35.00;;;;;;5999163;23;20444;-82
2022/04/19 12:01:18;;;;;;;3.53;3.33;;;25.80;37.20;;;;;;5990026;23;20514;-82
2022/04/19 12:03:45;;;;;;;4.30;4.00;;;26.20;36.20;;;;;;5998256;23;20505;-82
2022/04/19 12:06:14;;;;;;;4.53;4.13;;;26.70;36.10;;;;;;5992465;23;20540;-82
2022/04/19 12:08:42;;;;;;;4.93;4.53;;;26.70;36.30;;;;;;5998255;23;20445;-81
2022/04/19 12:11:13;;;;;;;4.97;4.57;;;27.00;36.10;;;;;;5999220;23;20467;-79
2022/04/19 12:13:43;;;;;;;5.30;4.70;;;27.10;35.50;;;;;;5998931;23;20530;-78
2022/04/19 12:16:29;;;;;;;5.93;5.53;;;26.90;35.20;;;;;;5982336;23;20456;-80
2022/04/19 12:18:57;;;;;;;5.57;4.60;;;26.30;34.60;;;;;;5988514;23;20449;-79
2022/04/19 12:21:38;;;;;;;5.30;4.90;;;26.10;36.40;;;;;;5992071;23;20536;-82
2022/04/19 12:24:06;;;;;;;5.37;4.87;;;26.20;37.30;;;;;;5986705;23;20449;-83
2022/04/19 12:26:36;;;;;;;5.00;4.60;;;26.30;37.00;;;;;;5980610;23;20444;-79
2022/04/19 12:29:12;;;;;;;4.90;4.43;;;26.30;37.00;;;;;;5992645;23;20507;-79
2022/04/19 12:31:41;;;;;;;5.13;3.60;;;26.40;37.30;;;;;;5983359;23;20438;-80
2022/04/19 12:34:09;;;;;;;4.50;4.10;;;26.80;37.00;;;;;;5983215;23;20828;-79
2022/04/19 12:36:44;;;;;;;7.03;5.00;;;27.20;36.10;;;;;;5982814;23;20979;-79
2022/04/19 12:39:11;;;;;;;4.57;4.20;;;27.40;35.90;;;;;;5980267;23;20449;-79
2022/04/19 12:41:43;;;;;;;4.40;4.10;;;27.40;36.30;;;;;;5982463;23;20516;-80
2022/04/19 12:44:11;;;;;;;4.63;4.23;;;27.40;36.00;;;;;;5974899;23;20473;-79
2022/04/19 12:46:42;;;;;;;5.07;4.67;;;27.60;36.30;;;;;;5982613;23;20444;-79
2022/04/19 12:49:23;;;;;;;5.57;5.07;;;27.60;36.70;;;;;;5985207;23;20434;-80
2022/04/19 12:52:02;;;;;;;5.47;5.03;;;27.80;36.10;;;;;;5982765;23;20437;-82
2022/04/19 12:54:30;;;;;;;5.87;5.37;;;27.80;35.70;;;;;;5978157;23;20469;-80
2022/04/19 12:57:39;;;;;;;5.00;4.50;;;27.40;35.90;;;;;;5976159;23;20425;-80
2022/04/19 13:00:09;;;;;;;5.13;4.70;;;27.00;36.10;;;;;;5970742;23;20441;-82
2022/04/19 13:02:36;;;;;;;6.43;4.97;;;26.90;36.10;;;;;;5944261;23;21013;-80
2022/04/19 13:05:03;;;;;;;4.70;4.30;;;27.00;36.60;;;;;;5971849;23;21032;-81
2022/04/19 13:13:03;;;;;;;3.73;3.53;;;26.70;37.60;;;;;;5962619;23;20462;-80
2022/04/19 13:15:32;;;;;;;4.80;4.40;;;26.90;37.40;;;;;;5975797;23;20481;-83
2022/04/19 13:17:59;;;;;;;4.70;4.30;;;26.80;37.30;;;;;;5987616;23;20491;-79
2022/04/19 13:20:26;;;;;;;4.83;4.40;;;26.40;37.50;;;;;;5993066;23;20485;-78
2022/04/19 13:22:53;;;;;;;4.67;4.37;;;26.20;38.20;;;;;;5990186;23;20548;-80
2022/04/19 13:25:20;;;;;;;4.40;4.10;;;25.90;38.80;;;;;;5997540;23;20445;-81
2022/04/19 13:27:48;;;;;;;4.83;4.43;;;25.90;39.00;;;;;;5995543;23;20441;-81
2022/04/19 13:30:19;;;;;;;6.60;5.40;;;26.20;38.70;;;;;;5999299;23;20440;-80
2022/04/19 13:32:47;;;;;;;5.50;4.07;;;25.80;37.90;;;;;;5985070;23;20465;-80
2022/04/19 13:35:14;;;;;;;4.40;4.10;;;26.00;39.10;;;;;;5987799;23;20461;-81
2022/04/19 13:40:26;;;;;;;4.50;4.07;;;27.20;38.40;;;;;;5972804;23;20438;-81
2022/04/19 13:42:53;;;;;;;3.80;3.50;;;27.80;37.40;;;;;;5992346;23;20479;-81
2022/04/19 13:45:21;;;;;;;4.43;4.13;;;28.30;37.00;;;;;;5992581;23;20448;-83
2022/04/19 13:47:49;;;;;;;4.20;3.90;;;29.20;36.80;;;;;;5991506;23;20481;-84
2022/04/19 13:50:16;;;;;;;3.80;3.50;;;30.10;35.90;;;;;;5974357;23;20568;-83
2022/04/19 13:52:43;;;;;;;3.17;2.90;;;30.60;35.00;;;;;;5992831;23;20472;-84
2022/04/19 13:55:15;;;;;;;3.07;2.87;;;30.60;34.80;;;;;;5990809;23;20508;-83